sensor_id;sensor_type;location;lat;lon;timestamp;P1;durP1;ratioP1;P2;durP2;ratioP2
22172;SDS011;11252;50.596;17.648;2023-04-29T00:01:31;6.07;;;4.73;;
22172;SDS011;11252;50.596;17.648;2023-04-29T00:03:58;10.47;;;5.30;;
22172;SDS011;11252;50.596;17.648;2023-04-29T00:06:25;7.80;;;5.60;;
22172;SDS011;11252;50.596;17.648;2023-04-29T00:08:53;7.97;;;5.07;;
22172;SDS011;11252;50.596;17.648;2023-04-29T00:11:21;9.23;;;6.00;;
22172;SDS011;11252;50.596;17.648;2023-04-29T00:13:48;13.93;;;5.63;;
22172;SDS011;11252;50.596;17.648;2023-04-29T00:16:15;8.10;;;5.77;;
22172;SDS011;11252;50.596;17.648;2023-04-29T00:18:43;10.27;;;5.67;;
22172;SDS011;11252;50.596;17.648;2023-04-29T00:21:10;8.67;;;5.03;;
22172;SDS011;11252;50.596;17.648;2023-04-29T00:23:37;8.47;;;5.40;;
22172;SDS011;11252;50.596;17.648;2023-04-29T00:26:05;9.97;;;6.43;;
22172;SDS011;11252;50.596;17.648;2023-04-29T00:28:32;7.33;;;5.20;;
22172;SDS011;11252;50.596;17.648;2023-04-29T00:30:59;11.60;;;6.90;;
22172;SDS011;11252;50.596;17.648;2023-04-29T00:33:27;9.17;;;6.07;;
22172;SDS011;11252;50.596;17.648;2023-04-29T00:35:54;10.53;;;6.30;;
22172;SDS011;11252;50.596;17.648;2023-04-29T00:38:21;6.83;;;5.67;;
22172;SDS011;11252;50.596;17.648;2023-04-29T00:40:49;8.70;;;5.77;;
22172;SDS011;11252;50.596;17.648;2023-04-29T00:43:16;9.23;;;6.00;;
22172;SDS011;11252;50.596;17.648;2023-04-29T00:45:43;6.33;;;5.23;;
22172;SDS011;11252;50.596;17.648;2023-04-29T00:48:12;7.80;;;5.53;;
22172;SDS011;11252;50.596;17.648;2023-04-29T00:50:41;9.20;;;5.40;;
22172;SDS011;11252;50.596;17.648;2023-04-29T00:53:09;10.67;;;5.53;;
22172;SDS011;11252;50.596;17.648;2023-04-29T00:55:39;10.60;;;6.17;;
22172;SDS011;11252;50.596;17.648;2023-04-29T00:58:08;8.87;;;6.40;;
22172;SDS011;11252;50.596;17.648;2023-04-29T01:00:37;11.17;;;5.77;;
22172;SDS011;11252;50.596;17.648;2023-04-29T01:03:04;9.03;;;6.03;;
22172;SDS011;11252;50.596;17.648;2023-04-29T01:05:32;8.87;;;6.00;;
22172;SDS011;11252;50.596;17.648;2023-04-29T01:11:10;9.13;;;6.30;;
22172;SDS011;11252;50.596;17.648;2023-04-29T01:13:57;9.67;;;6.63;;
22172;SDS011;11252;50.596;17.648;2023-04-29T01:16:33;6.87;;;6.13;;
22172;SDS011;11252;50.596;17.648;2023-04-29T01:22:05;11.37;;;6.23;;
22172;SDS011;11252;50.596;17.648;2023-04-29T01:24:33;12.90;;;6.37;;
22172;SDS011;11252;50.596;17.648;2023-04-29T01:27:21;12.63;;;7.17;;
22172;SDS011;11252;50.596;17.648;2023-04-29T01:33:14;11.47;;;6.83;;
22172;SDS011;11252;50.596;17.648;2023-04-29T01:42:03;9.23;;;6.73;;
22172;SDS011;11252;50.596;17.648;2023-04-29T01:44:17;8.73;;;7.07;;
22172;SDS011;11252;50.596;17.648;2023-04-29T01:46:50;12.03;;;6.80;;
22172;SDS011;11252;50.596;17.648;2023-04-29T01:49:26;9.33;;;6.63;;
22172;SDS011;11252;50.596;17.648;2023-04-29T01:51:54;8.50;;;7.60;;
22172;SDS011;11252;50.596;17.648;2023-04-29T01:54:23;8.50;;;6.67;;
22172;SDS011;11252;50.596;17.648;2023-04-29T01:56:51;12.93;;;7.10;;
22172;SDS011;11252;50.596;17.648;2023-04-29T01:59:18;11.67;;;6.57;;
22172;SDS011;11252;50.596;17.648;2023-04-29T02:01:46;9.83;;;6.60;;
22172;SDS011;11252;50.596;17.648;2023-04-29T02:04:13;9.20;;;6.80;;
22172;SDS011;11252;50.596;17.648;2023-04-29T02:06:41;11.00;;;7.13;;
22172;SDS011;11252;50.596;17.648;2023-04-29T02:09:10;10.57;;;7.20;;
22172;SDS011;11252;50.596;17.648;2023-04-29T02:11:37;13.77;;;7.20;;
22172;SDS011;11252;50.596;17.648;2023-04-29T02:14:05;12.33;;;7.67;;
22172;SDS011;11252;50.596;17.648;2023-04-29T02:16:32;11.60;;;6.80;;
22172;SDS011;11252;50.596;17.648;2023-04-29T02:18:59;11.07;;;6.90;;
22172;SDS011;11252;50.596;17.648;2023-04-29T02:21:26;8.70;;;6.83;;
22172;SDS011;11252;50.596;17.648;2023-04-29T02:23:53;10.37;;;7.73;;
22172;SDS011;11252;50.596;17.648;2023-04-29T02:26:21;14.47;;;9.57;;
22172;SDS011;11252;50.596;17.648;2023-04-29T02:28:49;12.17;;;7.57;;
22172;SDS011;11252;50.596;17.648;2023-04-29T02:31:17;9.33;;;7.10;;
22172;SDS011;11252;50.596;17.648;2023-04-29T02:33:45;10.87;;;6.67;;
22172;SDS011;11252;50.596;17.648;2023-04-29T02:36:12;11.93;;;7.03;;
22172;SDS011;11252;50.596;17.648;2023-04-29T02:38:40;9.33;;;7.07;;
22172;SDS011;11252;50.596;17.648;2023-04-29T02:41:07;8.63;;;7.13;;
22172;SDS011;11252;50.596;17.648;2023-04-29T02:43:34;10.10;;;6.67;;
22172;SDS011;11252;50.596;17.648;2023-04-29T02:46:02;8.40;;;6.60;;
22172;SDS011;11252;50.596;17.648;2023-04-29T02:48:29;12.03;;;7.07;;
22172;SDS011;11252;50.596;17.648;2023-04-29T02:50:57;12.57;;;6.90;;
22172;SDS011;11252;50.596;17.648;2023-04-29T02:53:24;10.27;;;7.13;;
22172;SDS011;11252;50.596;17.648;2023-04-29T02:55:51;9.70;;;6.83;;
22172;SDS011;11252;50.596;17.648;2023-04-29T02:58:19;11.70;;;7.67;;
22172;SDS011;11252;50.596;17.648;2023-04-29T03:00:46;9.37;;;6.87;;
22172;SDS011;11252;50.596;17.648;2023-04-29T03:03:13;12.97;;;7.07;;
22172;SDS011;11252;50.596;17.648;2023-04-29T03:05:41;10.73;;;6.83;;
22172;SDS011;11252;50.596;17.648;2023-04-29T03:08:08;9.87;;;6.60;;
22172;SDS011;11252;50.596;17.648;2023-04-29T03:10:36;11.40;;;7.17;;
22172;SDS011;11252;50.596;17.648;2023-04-29T03:13:07;10.90;;;6.50;;
22172;SDS011;11252;50.596;17.648;2023-04-29T03:15:34;12.37;;;6.53;;
22172;SDS011;11252;50.596;17.648;2023-04-29T03:18:02;10.37;;;7.17;;
22172;SDS011;11252;50.596;17.648;2023-04-29T03:20:30;14.33;;;7.77;;
22172;SDS011;11252;50.596;17.648;2023-04-29T03:22:58;11.30;;;7.27;;
22172;SDS011;11252;50.596;17.648;2023-04-29T03:25:26;10.10;;;7.10;;
22172;SDS011;11252;50.596;17.648;2023-04-29T03:27:54;10.90;;;7.63;;
22172;SDS011;11252;50.596;17.648;2023-04-29T03:30:21;8.90;;;6.90;;
22172;SDS011;11252;50.596;17.648;2023-04-29T03:32:48;9.90;;;7.07;;
22172;SDS011;11252;50.596;17.648;2023-04-29T03:35:16;11.13;;;7.40;;
22172;SDS011;11252;50.596;17.648;2023-04-29T03:37:43;8.63;;;7.00;;
22172;SDS011;11252;50.596;17.648;2023-04-29T03:40:11;12.47;;;8.33;;
22172;SDS011;11252;50.596;17.648;2023-04-29T03:42:38;10.27;;;6.90;;
22172;SDS011;11252;50.596;17.648;2023-04-29T03:45:06;15.57;;;7.03;;
22172;SDS011;11252;50.596;17.648;2023-04-29T03:47:34;15.97;;;7.07;;
22172;SDS011;11252;50.596;17.648;2023-04-29T03:50:02;10.60;;;7.47;;
22172;SDS011;11252;50.596;17.648;2023-04-29T03:52:30;11.10;;;7.63;;
22172;SDS011;11252;50.596;17.648;2023-04-29T03:54:57;11.50;;;7.07;;
22172;SDS011;11252;50.596;17.648;2023-04-29T03:57:24;12.60;;;7.50;;
22172;SDS011;11252;50.596;17.648;2023-04-29T03:59:52;10.67;;;7.40;;
22172;SDS011;11252;50.596;17.648;2023-04-29T04:02:20;16.73;;;10.90;;
22172;SDS011;11252;50.596;17.648;2023-04-29T04:04:47;13.30;;;7.63;;
22172;SDS011;11252;50.596;17.648;2023-04-29T04:07:15;17.17;;;10.63;;
22172;SDS011;11252;50.596;17.648;2023-04-29T04:09:42;15.73;;;7.97;;
22172;SDS011;11252;50.596;17.648;2023-04-29T04:12:09;9.27;;;7.50;;
22172;SDS011;11252;50.596;17.648;2023-04-29T04:14:37;8.93;;;7.37;;
22172;SDS011;11252;50.596;17.648;2023-04-29T04:17:04;12.30;;;7.97;;
22172;SDS011;11252;50.596;17.648;2023-04-29T04:19:32;10.37;;;7.83;;
22172;SDS011;11252;50.596;17.648;2023-04-29T04:22:01;12.03;;;7.87;;
22172;SDS011;11252;50.596;17.648;2023-04-29T04:24:30;19.40;;;17.33;;
22172;SDS011;11252;50.596;17.648;2023-04-29T04:26:58;12.03;;;8.07;;
22172;SDS011;11252;50.596;17.648;2023-04-29T04:29:25;14.43;;;7.43;;
22172;SDS011;11252;50.596;17.648;2023-04-29T04:31:52;10.43;;;7.70;;
22172;SDS011;11252;50.596;17.648;2023-04-29T04:34:20;11.73;;;8.47;;
22172;SDS011;11252;50.596;17.648;2023-04-29T04:36:47;18.50;;;9.43;;
22172;SDS011;11252;50.596;17.648;2023-04-29T04:39:15;11.37;;;8.63;;
22172;SDS011;11252;50.596;17.648;2023-04-29T04:41:42;17.90;;;8.80;;
22172;SDS011;11252;50.596;17.648;2023-04-29T04:44:09;11.80;;;8.30;;
22172;SDS011;11252;50.596;17.648;2023-04-29T04:46:37;12.23;;;8.20;;
22172;SDS011;11252;50.596;17.648;2023-04-29T04:49:04;9.33;;;7.50;;
22172;SDS011;11252;50.596;17.648;2023-04-29T04:51:32;20.10;;;13.27;;
22172;SDS011;11252;50.596;17.648;2023-04-29T04:53:59;12.37;;;8.67;;
22172;SDS011;11252;50.596;17.648;2023-04-29T04:56:26;17.60;;;7.97;;
22172;SDS011;11252;50.596;17.648;2023-04-29T04:58:54;34.73;;;15.07;;
22172;SDS011;11252;50.596;17.648;2023-04-29T05:01:21;13.33;;;7.73;;
22172;SDS011;11252;50.596;17.648;2023-04-29T05:03:48;36.63;;;19.33;;
22172;SDS011;11252;50.596;17.648;2023-04-29T05:06:16;11.10;;;9.53;;
22172;SDS011;11252;50.596;17.648;2023-04-29T05:08:43;19.93;;;8.73;;
22172;SDS011;11252;50.596;17.648;2023-04-29T05:11:16;18.63;;;9.10;;
22172;SDS011;11252;50.596;17.648;2023-04-29T05:13:45;15.93;;;8.10;;
22172;SDS011;11252;50.596;17.648;2023-04-29T05:16:12;13.40;;;8.03;;
22172;SDS011;11252;50.596;17.648;2023-04-29T05:18:40;19.00;;;9.30;;
22172;SDS011;11252;50.596;17.648;2023-04-29T05:21:11;24.13;;;12.43;;
22172;SDS011;11252;50.596;17.648;2023-04-29T05:23:42;13.67;;;8.07;;
22172;SDS011;11252;50.596;17.648;2023-04-29T05:26:10;12.27;;;7.97;;
22172;SDS011;11252;50.596;17.648;2023-04-29T05:28:37;13.83;;;7.97;;
22172;SDS011;11252;50.596;17.648;2023-04-29T05:31:04;11.57;;;8.43;;
22172;SDS011;11252;50.596;17.648;2023-04-29T05:33:32;11.50;;;8.10;;
22172;SDS011;11252;50.596;17.648;2023-04-29T05:35:59;20.97;;;8.47;;
22172;SDS011;11252;50.596;17.648;2023-04-29T05:38:27;15.73;;;8.13;;
22172;SDS011;11252;50.596;17.648;2023-04-29T05:40:55;14.17;;;8.03;;
22172;SDS011;11252;50.596;17.648;2023-04-29T05:43:22;16.30;;;8.10;;
22172;SDS011;11252;50.596;17.648;2023-04-29T05:45:50;14.13;;;8.23;;
22172;SDS011;11252;50.596;17.648;2023-04-29T05:48:17;15.67;;;8.87;;
22172;SDS011;11252;50.596;17.648;2023-04-29T05:50:44;14.17;;;7.77;;
22172;SDS011;11252;50.596;17.648;2023-04-29T05:53:13;10.83;;;8.33;;
22172;SDS011;11252;50.596;17.648;2023-04-29T05:55:41;10.93;;;7.80;;
22172;SDS011;11252;50.596;17.648;2023-04-29T05:58:10;14.80;;;9.17;;
22172;SDS011;11252;50.596;17.648;2023-04-29T06:00:38;13.33;;;7.97;;
22172;SDS011;11252;50.596;17.648;2023-04-29T06:03:06;15.53;;;8.67;;
22172;SDS011;11252;50.596;17.648;2023-04-29T06:05:33;13.20;;;7.33;;
22172;SDS011;11252;50.596;17.648;2023-04-29T06:08:01;13.40;;;8.23;;
22172;SDS011;11252;50.596;17.648;2023-04-29T06:10:30;11.43;;;7.83;;
22172;SDS011;11252;50.596;17.648;2023-04-29T06:12:58;14.10;;;8.20;;
22172;SDS011;11252;50.596;17.648;2023-04-29T06:15:26;9.27;;;6.73;;
22172;SDS011;11252;50.596;17.648;2023-04-29T06:17:53;14.17;;;7.80;;
22172;SDS011;11252;50.596;17.648;2023-04-29T06:20:21;9.67;;;7.27;;
22172;SDS011;11252;50.596;17.648;2023-04-29T06:22:49;8.53;;;6.97;;
22172;SDS011;11252;50.596;17.648;2023-04-29T06:25:16;14.83;;;8.13;;
22172;SDS011;11252;50.596;17.648;2023-04-29T06:27:43;32.73;;;17.07;;
22172;SDS011;11252;50.596;17.648;2023-04-29T06:30:10;18.33;;;11.47;;
22172;SDS011;11252;50.596;17.648;2023-04-29T06:32:38;12.87;;;7.47;;
22172;SDS011;11252;50.596;17.648;2023-04-29T06:35:06;11.20;;;7.63;;
22172;SDS011;11252;50.596;17.648;2023-04-29T06:37:34;22.67;;;12.43;;
22172;SDS011;11252;50.596;17.648;2023-04-29T06:40:03;25.00;;;12.93;;
22172;SDS011;11252;50.596;17.648;2023-04-29T06:42:32;19.97;;;7.43;;
22172;SDS011;11252;50.596;17.648;2023-04-29T06:45:00;17.93;;;7.33;;
22172;SDS011;11252;50.596;17.648;2023-04-29T06:47:27;50.13;;;18.63;;
22172;SDS011;11252;50.596;17.648;2023-04-29T06:49:54;19.97;;;9.63;;
22172;SDS011;11252;50.596;17.648;2023-04-29T06:52:22;11.53;;;6.30;;
22172;SDS011;11252;50.596;17.648;2023-04-29T06:54:49;19.87;;;8.20;;
22172;SDS011;11252;50.596;17.648;2023-04-29T06:57:18;6.87;;;5.80;;
22172;SDS011;11252;50.596;17.648;2023-04-29T06:59:46;8.17;;;5.73;;
22172;SDS011;11252;50.596;17.648;2023-04-29T07:02:14;9.23;;;6.70;;
22172;SDS011;11252;50.596;17.648;2023-04-29T07:04:41;9.23;;;5.40;;
22172;SDS011;11252;50.596;17.648;2023-04-29T07:07:09;10.63;;;6.47;;
22172;SDS011;11252;50.596;17.648;2023-04-29T07:09:36;8.17;;;5.70;;
22172;SDS011;11252;50.596;17.648;2023-04-29T07:12:04;8.20;;;5.40;;
22172;SDS011;11252;50.596;17.648;2023-04-29T07:14:32;8.60;;;4.97;;
22172;SDS011;11252;50.596;17.648;2023-04-29T07:16:59;8.83;;;5.20;;
22172;SDS011;11252;50.596;17.648;2023-04-29T07:19:27;6.50;;;5.30;;
22172;SDS011;11252;50.596;17.648;2023-04-29T07:21:54;9.13;;;4.63;;
22172;SDS011;11252;50.596;17.648;2023-04-29T07:24:22;6.03;;;3.80;;
22172;SDS011;11252;50.596;17.648;2023-04-29T07:26:50;5.70;;;4.40;;
22172;SDS011;11252;50.596;17.648;2023-04-29T07:29:18;17.27;;;7.27;;
22172;SDS011;11252;50.596;17.648;2023-04-29T07:31:46;5.70;;;4.30;;
22172;SDS011;11252;50.596;17.648;2023-04-29T07:34:13;21.00;;;10.27;;
22172;SDS011;11252;50.596;17.648;2023-04-29T07:36:41;4.63;;;3.00;;
22172;SDS011;11252;50.596;17.648;2023-04-29T07:39:08;3.70;;;3.10;;
22172;SDS011;11252;50.596;17.648;2023-04-29T07:41:37;5.67;;;3.40;;
22172;SDS011;11252;50.596;17.648;2023-04-29T07:44:05;4.43;;;3.60;;
22172;SDS011;11252;50.596;17.648;2023-04-29T07:46:33;6.50;;;3.97;;
22172;SDS011;11252;50.596;17.648;2023-04-29T07:49:00;5.47;;;3.40;;
22172;SDS011;11252;50.596;17.648;2023-04-29T07:51:27;11.77;;;6.13;;
22172;SDS011;11252;50.596;17.648;2023-04-29T07:53:55;7.27;;;3.67;;
22172;SDS011;11252;50.596;17.648;2023-04-29T07:56:22;8.57;;;4.07;;
22172;SDS011;11252;50.596;17.648;2023-04-29T07:58:53;5.10;;;3.70;;
22172;SDS011;11252;50.596;17.648;2023-04-29T08:01:20;9.10;;;3.30;;
22172;SDS011;11252;50.596;17.648;2023-04-29T08:03:47;3.93;;;3.13;;
22172;SDS011;11252;50.596;17.648;2023-04-29T08:06:15;4.13;;;3.20;;
22172;SDS011;11252;50.596;17.648;2023-04-29T08:08:43;6.07;;;3.33;;
22172;SDS011;11252;50.596;17.648;2023-04-29T08:11:17;7.27;;;3.57;;
22172;SDS011;11252;50.596;17.648;2023-04-29T08:13:46;4.70;;;3.10;;
22172;SDS011;11252;50.596;17.648;2023-04-29T08:16:14;3.90;;;3.03;;
22172;SDS011;11252;50.596;17.648;2023-04-29T08:18:41;3.10;;;2.70;;
22172;SDS011;11252;50.596;17.648;2023-04-29T08:21:09;5.30;;;2.90;;
22172;SDS011;11252;50.596;17.648;2023-04-29T08:23:39;4.23;;;3.30;;
22172;SDS011;11252;50.596;17.648;2023-04-29T08:26:08;4.40;;;3.60;;
22172;SDS011;11252;50.596;17.648;2023-04-29T08:28:36;5.40;;;4.07;;
22172;SDS011;11252;50.596;17.648;2023-04-29T08:31:04;4.60;;;4.20;;
22172;SDS011;11252;50.596;17.648;2023-04-29T08:33:36;6.20;;;4.63;;
22172;SDS011;11252;50.596;17.648;2023-04-29T08:36:03;6.20;;;4.40;;
22172;SDS011;11252;50.596;17.648;2023-04-29T08:38:32;6.10;;;4.80;;
22172;SDS011;11252;50.596;17.648;2023-04-29T08:40:59;8.53;;;4.83;;
22172;SDS011;11252;50.596;17.648;2023-04-29T08:43:27;6.70;;;5.27;;
22172;SDS011;11252;50.596;17.648;2023-04-29T08:45:56;6.10;;;5.27;;
22172;SDS011;11252;50.596;17.648;2023-04-29T08:48:25;6.73;;;6.03;;
22172;SDS011;11252;50.596;17.648;2023-04-29T08:50:54;11.77;;;10.57;;
22172;SDS011;11252;50.596;17.648;2023-04-29T08:53:24;7.80;;;7.00;;
22172;SDS011;11252;50.596;17.648;2023-04-29T08:55:51;7.10;;;6.40;;
22172;SDS011;11252;50.596;17.648;2023-04-29T08:58:20;11.67;;;9.43;;
22172;SDS011;11252;50.596;17.648;2023-04-29T09:00:50;9.33;;;8.13;;
22172;SDS011;11252;50.596;17.648;2023-04-29T09:03:33;12.90;;;10.43;;
22172;SDS011;11252;50.596;17.648;2023-04-29T09:06:21;20.10;;;14.17;;
22172;SDS011;11252;50.596;17.648;2023-04-29T09:08:49;9.10;;;6.70;;
22172;SDS011;11252;50.596;17.648;2023-04-29T09:11:16;7.60;;;6.10;;
22172;SDS011;11252;50.596;17.648;2023-04-29T09:13:45;18.60;;;16.17;;
22172;SDS011;11252;50.596;17.648;2023-04-29T09:16:13;49.63;;;34.53;;
22172;SDS011;11252;50.596;17.648;2023-04-29T09:18:41;30.77;;;23.10;;
22172;SDS011;11252;50.596;17.648;2023-04-29T09:23:51;8.27;;;7.20;;
22172;SDS011;11252;50.596;17.648;2023-04-29T09:26:23;7.10;;;6.40;;
22172;SDS011;11252;50.596;17.648;2023-04-29T09:29:10;10.50;;;7.73;;
22172;SDS011;11252;50.596;17.648;2023-04-29T09:31:44;11.03;;;6.57;;
22172;SDS011;11252;50.596;17.648;2023-04-29T09:34:12;8.70;;;7.20;;
22172;SDS011;11252;50.596;17.648;2023-04-29T09:36:43;9.23;;;7.93;;
22172;SDS011;11252;50.596;17.648;2023-04-29T09:39:19;8.73;;;7.77;;
22172;SDS011;11252;50.596;17.648;2023-04-29T09:44:27;7.20;;;6.50;;
22172;SDS011;11252;50.596;17.648;2023-04-29T09:47:00;22.40;;;14.60;;
22172;SDS011;11252;50.596;17.648;2023-04-29T09:49:39;8.27;;;6.87;;
22172;SDS011;11252;50.596;17.648;2023-04-29T09:52:09;10.40;;;7.30;;
22172;SDS011;11252;50.596;17.648;2023-04-29T09:54:39;8.10;;;7.40;;
22172;SDS011;11252;50.596;17.648;2023-04-29T09:57:10;12.20;;;8.00;;
22172;SDS011;11252;50.596;17.648;2023-04-29T09:59:41;8.40;;;7.43;;
22172;SDS011;11252;50.596;17.648;2023-04-29T10:02:12;7.80;;;7.00;;
22172;SDS011;11252;50.596;17.648;2023-04-29T10:04:44;7.07;;;6.37;;
22172;SDS011;11252;50.596;17.648;2023-04-29T10:07:15;5.70;;;5.10;;
22172;SDS011;11252;50.596;17.648;2023-04-29T10:09:44;4.77;;;4.20;;
22172;SDS011;11252;50.596;17.648;2023-04-29T10:12:15;4.50;;;3.67;;
22172;SDS011;11252;50.596;17.648;2023-04-29T10:14:49;6.60;;;4.50;;
22172;SDS011;11252;50.596;17.648;2023-04-29T10:17:43;4.07;;;3.60;;
22172;SDS011;11252;50.596;17.648;2023-04-29T10:20:20;5.87;;;3.97;;
22172;SDS011;11252;50.596;17.648;2023-04-29T10:22:53;5.73;;;4.10;;
22172;SDS011;11252;50.596;17.648;2023-04-29T10:25:23;3.83;;;3.43;;
22172;SDS011;11252;50.596;17.648;2023-04-29T10:27:51;3.77;;;3.00;;
22172;SDS011;11252;50.596;17.648;2023-04-29T10:30:20;5.68;;;3.50;;
22172;SDS011;11252;50.596;17.648;2023-04-29T10:32:48;4.03;;;3.60;;
22172;SDS011;11252;50.596;17.648;2023-04-29T10:35:18;3.88;;;3.47;;
22172;SDS011;11252;50.596;17.648;2023-04-29T10:37:51;5.35;;;3.95;;
22172;SDS011;11252;50.596;17.648;2023-04-29T10:43:12;3.53;;;3.22;;
22172;SDS011;11252;50.596;17.648;2023-04-29T10:45:39;4.00;;;3.60;;
22172;SDS011;11252;50.596;17.648;2023-04-29T10:48:07;4.70;;;3.70;;
22172;SDS011;11252;50.596;17.648;2023-04-29T10:53:15;4.97;;;3.85;;
22172;SDS011;11252;50.596;17.648;2023-04-29T10:55:49;4.18;;;3.78;;
22172;SDS011;11252;50.596;17.648;2023-04-29T10:58:45;4.30;;;3.90;;
22172;SDS011;11252;50.596;17.648;2023-04-29T11:01:15;3.90;;;3.50;;
22172;SDS011;11252;50.596;17.648;2023-04-29T11:06:14;5.18;;;4.28;;
22172;SDS011;11252;50.596;17.648;2023-04-29T11:08:42;5.35;;;4.10;;
22172;SDS011;11252;50.596;17.648;2023-04-29T11:11:12;5.07;;;3.80;;
22172;SDS011;11252;50.596;17.648;2023-04-29T11:13:40;4.85;;;4.35;;
22172;SDS011;11252;50.596;17.648;2023-04-29T11:16:12;5.53;;;4.00;;
22172;SDS011;11252;50.596;17.648;2023-04-29T11:21:36;7.40;;;4.72;;
22172;SDS011;11252;50.596;17.648;2023-04-29T11:24:04;7.00;;;3.80;;
22172;SDS011;11252;50.596;17.648;2023-04-29T11:26:35;5.05;;;3.50;;
22172;SDS011;11252;50.596;17.648;2023-04-29T11:29:04;5.05;;;3.60;;
22172;SDS011;11252;50.596;17.648;2023-04-29T11:31:36;4.85;;;3.90;;
22172;SDS011;11252;50.596;17.648;2023-04-29T11:34:07;4.47;;;4.10;;
22172;SDS011;11252;50.596;17.648;2023-04-29T11:36:35;4.30;;;3.90;;
22172;SDS011;11252;50.596;17.648;2023-04-29T11:39:03;4.35;;;3.83;;
22172;SDS011;11252;50.596;17.648;2023-04-29T11:41:33;3.40;;;3.10;;
22172;SDS011;11252;50.596;17.648;2023-04-29T11:44:01;4.22;;;3.42;;
22172;SDS011;11252;50.596;17.648;2023-04-29T11:46:31;3.80;;;3.42;;
22172;SDS011;11252;50.596;17.648;2023-04-29T11:48:58;4.95;;;4.22;;
22172;SDS011;11252;50.596;17.648;2023-04-29T11:51:26;6.82;;;5.38;;
22172;SDS011;11252;50.596;17.648;2023-04-29T11:53:54;5.00;;;4.50;;
22172;SDS011;11252;50.596;17.648;2023-04-29T11:56:23;5.78;;;5.18;;
22172;SDS011;11252;50.596;17.648;2023-04-29T11:58:54;5.80;;;4.88;;
22172;SDS011;11252;50.596;17.648;2023-04-29T12:01:24;4.03;;;3.72;;
22172;SDS011;11252;50.596;17.648;2023-04-29T12:03:55;4.32;;;3.92;;
22172;SDS011;11252;50.596;17.648;2023-04-29T12:06:28;3.58;;;2.92;;
22172;SDS011;11252;50.596;17.648;2023-04-29T12:08:57;3.10;;;2.80;;
22172;SDS011;11252;50.596;17.648;2023-04-29T12:11:25;4.30;;;2.60;;
22172;SDS011;11252;50.596;17.648;2023-04-29T12:13:54;3.00;;;2.70;;
22172;SDS011;11252;50.596;17.648;2023-04-29T12:16:23;5.93;;;5.35;;
22172;SDS011;11252;50.596;17.648;2023-04-29T12:18:51;3.72;;;2.97;;
22172;SDS011;11252;50.596;17.648;2023-04-29T12:21:20;5.68;;;3.15;;
22172;SDS011;11252;50.596;17.648;2023-04-29T12:23:49;6.85;;;4.07;;
22172;SDS011;11252;50.596;17.648;2023-04-29T12:26:17;3.45;;;3.05;;
22172;SDS011;11252;50.596;17.648;2023-04-29T12:28:47;15.32;;;13.52;;
22172;SDS011;11252;50.596;17.648;2023-04-29T12:31:20;9.30;;;6.70;;
22172;SDS011;11252;50.596;17.648;2023-04-29T12:33:52;13.32;;;11.68;;
22172;SDS011;11252;50.596;17.648;2023-04-29T12:36:22;13.38;;;11.98;;
22172;SDS011;11252;50.596;17.648;2023-04-29T12:38:52;4.75;;;4.35;;
22172;SDS011;11252;50.596;17.648;2023-04-29T12:41:34;5.10;;;4.70;;
22172;SDS011;11252;50.596;17.648;2023-04-29T12:44:07;4.57;;;4.10;;
22172;SDS011;11252;50.596;17.648;2023-04-29T12:46:37;6.90;;;6.03;;
22172;SDS011;11252;50.596;17.648;2023-04-29T12:49:07;5.35;;;4.85;;
22172;SDS011;11252;50.596;17.648;2023-04-29T12:51:34;5.43;;;4.10;;
22172;SDS011;11252;50.596;17.648;2023-04-29T12:54:04;4.05;;;3.60;;
22172;SDS011;11252;50.596;17.648;2023-04-29T12:56:36;4.93;;;3.63;;
22172;SDS011;11252;50.596;17.648;2023-04-29T12:59:07;4.05;;;3.65;;
22172;SDS011;11252;50.596;17.648;2023-04-29T13:01:36;4.93;;;3.83;;
22172;SDS011;11252;50.596;17.648;2023-04-29T13:04:05;3.95;;;3.65;;
22172;SDS011;11252;50.596;17.648;2023-04-29T13:06:34;4.75;;;3.20;;
22172;SDS011;11252;50.596;17.648;2023-04-29T13:09:07;4.30;;;3.90;;
22172;SDS011;11252;50.596;17.648;2023-04-29T13:11:44;4.38;;;3.97;;
22172;SDS011;11252;50.596;17.648;2023-04-29T13:14:12;3.47;;;3.17;;
22172;SDS011;11252;50.596;17.648;2023-04-29T13:16:40;4.88;;;3.55;;
22172;SDS011;11252;50.596;17.648;2023-04-29T13:19:07;3.80;;;3.03;;
22172;SDS011;11252;50.596;17.648;2023-04-29T13:21:55;5.72;;;2.97;;
22172;SDS011;11252;50.596;17.648;2023-04-29T13:24:23;7.03;;;6.32;;
22172;SDS011;11252;50.596;17.648;2023-04-29T13:26:50;4.97;;;4.47;;
22172;SDS011;11252;50.596;17.648;2023-04-29T13:29:18;4.57;;;3.95;;
22172;SDS011;11252;50.596;17.648;2023-04-29T13:31:46;3.40;;;3.10;;
22172;SDS011;11252;50.596;17.648;2023-04-29T13:34:13;3.40;;;3.10;;
22172;SDS011;11252;50.596;17.648;2023-04-29T13:36:41;3.63;;;3.33;;
22172;SDS011;11252;50.596;17.648;2023-04-29T13:39:08;3.03;;;2.67;;
22172;SDS011;11252;50.596;17.648;2023-04-29T13:41:36;3.53;;;2.92;;
22172;SDS011;11252;50.596;17.648;2023-04-29T13:44:10;6.05;;;3.40;;
22172;SDS011;11252;50.596;17.648;2023-04-29T13:46:50;3.83;;;3.40;;
22172;SDS011;11252;50.596;17.648;2023-04-29T13:49:17;4.68;;;4.28;;
22172;SDS011;11252;50.596;17.648;2023-04-29T13:52:05;4.00;;;3.60;;
22172;SDS011;11252;50.596;17.648;2023-04-29T13:54:53;4.40;;;4.00;;
22172;SDS011;11252;50.596;17.648;2023-04-29T13:57:40;6.95;;;4.43;;
22172;SDS011;11252;50.596;17.648;2023-04-29T14:00:11;6.20;;;5.60;;
22172;SDS011;11252;50.596;17.648;2023-04-29T14:03:05;8.00;;;6.88;;
22172;SDS011;11252;50.596;17.648;2023-04-29T14:05:38;6.53;;;4.03;;
22172;SDS011;11252;50.596;17.648;2023-04-29T14:08:08;4.03;;;3.50;;
22172;SDS011;11252;50.596;17.648;2023-04-29T14:10:35;4.18;;;3.65;;
22172;SDS011;11252;50.596;17.648;2023-04-29T14:13:03;3.83;;;3.53;;
22172;SDS011;11252;50.596;17.648;2023-04-29T14:15:31;3.75;;;3.42;;
22172;SDS011;11252;50.596;17.648;2023-04-29T14:17:59;3.85;;;3.10;;
22172;SDS011;11252;50.596;17.648;2023-04-29T14:20:26;7.28;;;2.95;;
22172;SDS011;11252;50.596;17.648;2023-04-29T14:22:54;4.47;;;3.95;;
22172;SDS011;11252;50.596;17.648;2023-04-29T14:25:21;3.10;;;2.90;;
22172;SDS011;11252;50.596;17.648;2023-04-29T14:27:50;3.47;;;3.17;;
22172;SDS011;11252;50.596;17.648;2023-04-29T14:30:18;3.80;;;3.25;;
22172;SDS011;11252;50.596;17.648;2023-04-29T14:32:46;10.32;;;8.23;;
22172;SDS011;11252;50.596;17.648;2023-04-29T14:35:13;8.20;;;7.38;;
22172;SDS011;11252;50.596;17.648;2023-04-29T14:37:40;20.05;;;18.15;;
22172;SDS011;11252;50.596;17.648;2023-04-29T14:40:08;17.27;;;15.43;;
22172;SDS011;11252;50.596;17.648;2023-04-29T14:42:35;3.75;;;3.45;;
22172;SDS011;11252;50.596;17.648;2023-04-29T14:45:03;12.82;;;11.68;;
22172;SDS011;11252;50.596;17.648;2023-04-29T14:47:33;4.72;;;4.07;;
22172;SDS011;11252;50.596;17.648;2023-04-29T14:50:00;7.30;;;5.85;;
22172;SDS011;11252;50.596;17.648;2023-04-29T14:52:28;3.45;;;3.13;;
22172;SDS011;11252;50.596;17.648;2023-04-29T14:54:55;3.37;;;2.90;;
22172;SDS011;11252;50.596;17.648;2023-04-29T14:57:23;3.70;;;3.40;;
22172;SDS011;11252;50.596;17.648;2023-04-29T14:59:50;8.23;;;4.88;;
22172;SDS011;11252;50.596;17.648;2023-04-29T15:02:18;5.65;;;4.32;;
22172;SDS011;11252;50.596;17.648;2023-04-29T15:04:46;5.35;;;3.70;;
22172;SDS011;11252;50.596;17.648;2023-04-29T15:07:14;4.73;;;4.33;;
22172;SDS011;11252;50.596;17.648;2023-04-29T15:09:42;5.07;;;4.20;;
22172;SDS011;11252;50.596;17.648;2023-04-29T15:12:09;3.40;;;2.73;;